Time;durP1;ratioP1;P1;durP2;ratioP2;P2;SDS_P1;SDS_P2;PMS_P1;PMS_P2;Temp;Humidity;BMP_temperature;BMP_pressure;BME280_temperature;BME280_humidity;BME280_pressure;Samples;Min_cycle;Max_cycle;Signal;HPM_P1;HPM_P2
2022/12/11 00:01:23;;;;;;;82.70;43.70;;;;;;;8.52;100.00;97497.34;5013662;28;20048;-72
2022/12/11 00:03:49;;;;;;;85.07;46.50;;;;;;;8.46;100.00;97476.47;5009343;28;20026;-72
2022/12/11 00:06:18;;;;;;;89.15;44.42;;;;;;;8.56;100.00;97515.69;5006438;28;20030;-73
2022/12/11 00:08:43;;;;;;;79.97;44.40;;;;;;;8.44;100.00;97526.97;5011790;28;20112;-72
2022/12/11 00:11:14;;;;;;;82.20;40.72;;;;;;;8.34;100.00;97486.63;4999717;28;20493;-72
2022/12/11 00:13:40;;;;;;;76.30;41.92;;;;;;;8.47;100.00;97458.59;5006992;28;20464;-72
2022/12/11 00:16:06;;;;;;;90.55;43.88;;;;;;;8.53;100.00;97457.16;5001097;28;20127;-72
2022/12/11 00:18:32;;;;;;;88.95;44.38;;;;;;;8.60;100.00;97456.47;5012195;28;20040;-72
2022/12/11 00:21:01;;;;;;;83.85;42.78;;;;;;;8.51;100.00;97432.44;5010251;28;20030;-72
2022/12/11 00:23:27;;;;;;;80.20;43.05;;;;;;;8.51;100.00;97451.94;4992514;28;20497;-72
2022/12/11 00:25:53;;;;;;;87.05;45.72;;;;;;;8.41;100.00;97427.44;4992237;28;20045;-73
2022/12/11 00:28:18;;;;;;;80.75;42.00;;;;;;;8.58;100.00;97434.53;5003972;28;20504;-73
2022/12/11 00:30:44;;;;;;;76.65;42.63;;;;;;;8.74;100.00;97428.84;5007686;28;20041;-72
2022/12/11 00:33:11;;;;;;;92.50;46.03;;;;;;;8.84;100.00;97442.16;4993993;28;20297;-72
2022/12/11 00:35:42;;;;;;;74.68;39.28;;;;;;;9.03;100.00;97426.50;4992101;28;20034;-72
2022/12/11 00:38:12;;;;;;;86.28;42.78;;;;;;;8.94;100.00;97434.34;4991989;28;20033;-72
2022/12/11 00:40:38;;;;;;;85.40;44.53;;;;;;;9.02;100.00;97408.16;4998984;28;20109;-72
2022/12/11 00:43:04;;;;;;;80.13;40.38;;;;;;;9.08;100.00;97392.72;4991934;28;20114;-72
2022/12/11 00:45:29;;;;;;;76.25;42.20;;;;;;;8.90;100.00;97455.75;4995111;28;20512;-72
2022/12/11 00:47:55;;;;;;;74.97;41.05;;;;;;;8.73;100.00;97463.47;4998348;28;20038;-72
2022/12/11 00:50:20;;;;;;;72.22;40.42;;;;;;;8.66;100.00;97429.88;5003039;28;20096;-72
2022/12/11 00:52:45;;;;;;;78.35;41.00;;;;;;;8.84;100.00;97439.34;4994091;28;20100;-72
2022/12/11 00:55:12;;;;;;;75.57;38.58;;;;;;;9.00;100.00;97452.34;5002810;28;20547;-72
2022/12/11 00:57:38;;;;;;;76.63;37.90;;;;;;;9.05;100.00;97401.84;4991801;28;20420;-72
2022/12/11 01:00:06;;;;;;;68.03;37.70;;;;;;;9.00;100.00;97466.28;4992547;28;20109;-72
2022/12/11 01:02:32;;;;;;;74.75;39.50;;;;;;;8.97;100.00;97455.88;4991735;28;20034;-72
2022/12/11 01:04:57;;;;;;;70.05;38.90;;;;;;;9.00;100.00;97388.22;4991592;28;20128;-73
2022/12/11 01:07:23;;;;;;;73.15;38.83;;;;;;;8.98;100.00;97360.69;4992533;28;20053;-72
2022/12/11 01:12:33;;;;;;;61.95;34.50;;;;;;;8.93;100.00;97400.06;5000931;28;20056;-72
2022/12/11 01:14:58;;;;;;;77.45;41.00;;;;;;;8.94;100.00;97356.28;4992823;28;20022;-72
2022/12/11 01:17:24;;;;;;;67.72;37.03;;;;;;;8.98;100.00;97363.47;4992998;28;20038;-73
2022/12/11 01:19:49;;;;;;;70.40;38.90;;;;;;;8.93;100.00;97399.25;4991849;28;20034;-71
2022/12/11 01:22:15;;;;;;;72.90;37.60;;;;;;;8.85;100.00;97381.59;4991004;28;20034;-72
2022/12/11 01:24:40;;;;;;;74.78;38.13;;;;;;;8.99;100.00;97367.91;4992695;28;20030;-72
2022/12/11 01:27:05;;;;;;;71.57;37.53;;;;;;;8.72;100.00;97364.31;4994769;28;20129;-72
2022/12/11 01:29:31;;;;;;;65.40;36.88;;;;;;;8.62;100.00;97323.13;4992661;28;20473;-72
2022/12/11 01:31:56;;;;;;;80.30;41.63;;;;;;;8.62;100.00;97331.50;5024171;28;20493;-73
2022/12/11 01:34:22;;;;;;;77.82;40.20;;;;;;;8.60;100.00;97286.47;4990878;28;20034;-72
2022/12/11 01:36:47;;;;;;;70.63;39.55;;;;;;;8.58;100.00;97278.47;4994497;28;20034;-72
2022/12/11 01:39:13;;;;;;;74.32;39.72;;;;;;;8.57;100.00;97291.63;4990972;28;20472;-72
2022/12/11 01:41:38;;;;;;;77.15;42.67;;;;;;;8.11;100.00;97286.88;4992410;28;20382;-72
2022/12/11 01:44:29;;;;;;;81.40;42.88;;;;;;;8.25;100.00;97341.19;4991174;28;20140;-72
2022/12/11 01:46:55;;;;;;;82.28;39.72;;;;;;;8.48;100.00;97307.78;4994182;28;20086;-72
2022/12/11 01:49:24;;;;;;;78.70;41.35;;;;;;;8.12;100.00;97296.03;5002135;28;20082;-72
2022/12/11 01:51:59;;;;;;;83.78;42.08;;;;;;;8.21;100.00;97306.94;4992237;28;20026;-72
2022/12/11 01:54:28;;;;;;;68.93;38.80;;;;;;;8.28;100.00;97295.91;4992149;28;20026;-72
2022/12/11 01:56:57;;;;;;;79.85;42.15;;;;;;;8.25;100.00;97277.97;4992086;28;20026;-72
2022/12/11 01:59:26;;;;;;;83.30;42.30;;;;;;;8.18;100.00;97286.19;4991823;28;20160;-72
2022/12/11 02:01:54;;;;;;;83.47;42.88;;;;;;;8.28;100.00;97298.69;4994830;28;20029;-72
2022/12/11 02:04:20;;;;;;;84.97;39.92;;;;;;;8.54;100.00;97294.34;5011218;28;20096;-72
2022/12/11 02:06:48;;;;;;;75.95;38.78;;;;;;;8.63;100.00;97297.69;5010590;28;20108;-72
2022/12/11 02:09:18;;;;;;;79.72;40.78;;;;;;;8.50;100.00;97269.22;5011592;28;20056;-72
2022/12/11 02:12:15;;;;;;;73.10;36.95;;;;;;;8.65;100.00;97270.25;5011933;28;20465;-72
2022/12/11 02:14:57;;;;;;;81.75;38.83;;;;;;;8.76;100.00;97255.66;5003651;28;20022;-72
2022/12/11 02:17:31;;;;;;;66.70;37.08;;;;;;;8.83;100.00;97248.19;4990442;28;20023;-72
2022/12/11 02:20:07;;;;;;;79.40;37.80;;;;;;;8.97;100.00;97255.91;4991373;28;20898;-72
2022/12/11 02:23:10;;;;;;;63.75;35.30;;;;;;;9.01;100.00;97244.81;4994952;28;20022;-72
2022/12/11 02:25:47;;;;;;;60.47;34.70;;;;;;;8.95;100.00;97249.91;4990174;28;20100;-72
2022/12/11 02:28:19;;;;;;;65.90;35.17;;;;;;;9.09;100.00;97257.69;4994256;28;20037;-72
2022/12/11 02:30:53;;;;;;;66.65;35.42;;;;;;;8.82;100.00;97266.09;4992440;28;20057;-72
2022/12/11 02:33:27;;;;;;;68.60;35.88;;;;;;;8.66;100.00;97273.81;5010083;28;20026;-72
2022/12/11 02:35:53;;;;;;;67.57;34.05;;;;;;;8.79;100.00;97280.78;4997308;28;20018;-72
2022/12/11 02:38:28;;;;;;;64.15;37.25;;;;;;;8.44;100.00;97267.88;4991700;28;20026;-72
2022/12/11 02:40:57;;;;;;;76.13;40.28;;;;;;;8.28;100.00;97246.56;4990928;28;20632;-72
2022/12/11 02:43:30;;;;;;;71.63;38.42;;;;;;;8.28;100.00;97246.56;5003286;28;20412;-72
2022/12/11 02:45:57;;;;;;;76.97;40.50;;;;;;;8.15;100.00;97253.53;5010373;28;20034;-72
2022/12/11 02:48:23;;;;;;;77.45;42.22;;;;;;;8.16;100.00;97285.75;5005575;28;20032;-72
2022/12/11 02:50:54;;;;;;;78.68;40.63;;;;;;;8.31;100.00;97258.94;5007977;28;20034;-72
2022/12/11 02:53:24;;;;;;;75.82;39.25;;;;;;;8.18;100.00;97263.91;4991920;28;20026;-72
2022/12/11 02:55:55;;;;;;;78.15;39.10;;;;;;;8.35;100.00;97282.09;5000424;28;20034;-72
2022/12/11 02:58:24;;;;;;;85.80;43.53;;;;;;;8.18;100.00;97282.63;4995530;28;20026;-72
2022/12/11 03:00:50;;;;;;;78.13;39.53;;;;;;;8.23;100.00;97273.94;5032696;28;20468;-72
2022/12/11 03:03:16;;;;;;;72.40;35.30;;;;;;;8.42;100.00;97292.53;5001693;28;20029;-72
2022/12/11 03:05:41;;;;;;;66.35;36.70;;;;;;;8.57;100.00;97269.34;4990366;28;20035;-72
2022/12/11 03:08:07;;;;;;;73.45;36.70;;;;;;;8.38;100.00;97270.19;4990601;28;20022;-72
2022/12/11 03:10:33;;;;;;;70.03;36.75;;;;;;;8.42;100.00;97278.59;5001345;28;20037;-72
2022/12/11 03:12:59;;;;;;;67.13;35.13;;;;;;;8.53;100.00;97307.47;5010177;28;20022;-72
2022/12/11 03:15:54;;;;;;;75.18;37.45;;;;;;;8.56;100.00;97311.50;5011403;28;20036;-72
2022/12/11 03:18:34;;;;;;;75.15;36.47;;;;;;;8.51;100.00;97306.25;5003441;28;20034;-73
2022/12/11 03:21:04;;;;;;;75.38;39.08;;;;;;;8.47;100.00;97299.78;5003274;28;20056;-72
2022/12/11 03:23:39;;;;;;;90.18;41.55;;;;;;;8.36;100.00;97296.84;5010769;28;20033;-72
2022/12/11 03:26:12;;;;;;;72.53;40.72;;;;;;;8.22;100.00;97298.22;5009034;28;20030;-72
2022/12/11 03:28:54;;;;;;;74.30;40.78;;;;;;;8.17;100.00;97297.72;4996073;28;20128;-72
2022/12/11 03:31:42;;;;;;;74.53;39.33;;;;;;;8.21;100.00;97320.84;5012819;28;20085;-72
2022/12/11 03:34:19;;;;;;;81.47;40.03;;;;;;;8.41;100.00;97344.69;5012497;28;20030;-72
2022/12/11 03:36:47;;;;;;;78.65;39.95;;;;;;;8.34;100.00;97349.34;4995261;28;20037;-72
2022/12/11 03:39:22;;;;;;;73.38;39.25;;;;;;;8.43;100.00;97335.94;4995899;28;20030;-72
2022/12/11 03:41:50;;;;;;;78.90;40.05;;;;;;;8.49;100.00;97309.38;5010139;28;20084;-72
2022/12/11 03:44:17;;;;;;;76.03;37.00;;;;;;;8.49;100.00;97314.13;4994999;28;20100;-72
2022/12/11 03:46:45;;;;;;;84.85;43.30;;;;;;;8.42;100.00;97314.81;4996465;28;20030;-72
2022/12/11 03:49:25;;;;;;;81.45;44.17;;;;;;;8.38;100.00;97306.41;5009895;28;20057;-72
2022/12/11 03:51:54;;;;;;;71.60;40.28;;;;;;;8.39;100.00;97296.06;5010100;28;20025;-72
2022/12/11 03:54:20;;;;;;;81.47;41.17;;;;;;;8.38;100.00;97286.13;4995022;28;20516;-72
2022/12/11 03:56:48;;;;;;;72.65;38.08;;;;;;;8.40;100.00;97292.09;4994865;28;20022;-72
2022/12/11 03:59:13;;;;;;;77.60;40.65;;;;;;;8.59;100.00;97302.38;5004075;28;20029;-72
2022/12/11 04:01:39;;;;;;;67.60;37.97;;;;;;;8.65;100.00;97300.06;5001795;28;20489;-72
2022/12/11 04:04:04;;;;;;;67.80;35.05;;;;;;;8.54;100.00;97316.66;5005388;28;20116;-72
2022/12/11 04:06:30;;;;;;;66.72;36.13;;;;;;;8.59;100.00;97307.94;5008220;28;20035;-72
2022/12/11 04:08:55;;;;;;;82.68;38.40;;;;;;;8.53;100.00;97293.53;5006171;28;20033;-72
2022/12/11 04:11:36;;;;;;;77.15;42.78;;;;;;;8.53;100.00;97287.19;5013067;28;20074;-72
2022/12/11 04:16:54;;;;;;;74.93;37.60;;;;;;;8.63;100.00;97288.50;5014025;28;19920;-72
2022/12/11 04:24:52;;;;;;;71.63;38.92;;;;;;;8.48;100.00;97298.59;5014285;28;20065;-72
2022/12/11 04:27:47;;;;;;;70.47;33.50;;;;;;;8.57;100.00;97286.06;5012557;28;20049;-72
2022/12/11 04:30:07;;;;;;;58.75;33.05;;;;;;;8.70;100.00;97281.06;5004397;28;20077;-72
2022/12/11 04:32:32;;;;;;;62.55;33.17;;;;;;;8.69;100.00;97306.53;4993502;28;20571;-72
2022/12/11 04:34:58;;;;;;;60.60;31.33;;;;;;;8.73;100.00;97296.22;4993912;28;20026;-72
2022/12/11 04:37:23;;;;;;;55.60;29.67;;;;;;;8.82;100.00;97291.19;5011821;28;20026;-72
2022/12/11 04:39:49;;;;;;;52.65;29.55;;;;;;;8.95;100.00;97288.16;5012416;28;20037;-72
2022/12/11 04:42:15;;;;;;;59.83;30.90;;;;;;;8.95;100.00;97288.16;5011639;28;20030;-72
2022/12/11 04:44:40;;;;;;;58.33;30.77;;;;;;;9.07;100.00;97282.34;5007722;28;20069;-72
2022/12/11 04:47:06;;;;;;;66.45;34.78;;;;;;;9.13;100.00;97280.03;4993896;28;20115;-72
2022/12/11 04:49:31;;;;;;;46.72;26.35;;;;;;;9.17;100.00;97278.09;4993720;28;20445;-72
2022/12/11 04:51:57;;;;;;;54.42;24.83;;;;;;;9.37;100.00;97266.78;4993876;28;20398;-72
2022/12/11 04:54:22;;;;;;;40.05;22.15;;;;;;;9.62;100.00;97264.25;4993903;28;20100;-72
2022/12/11 04:56:47;;;;;;;8.05;4.78;;;;;;;11.08;100.00;97269.78;5001948;28;20100;-71
2022/12/11 04:59:13;;;;;;;10.18;3.15;;;;;;;12.13;91.66;97257.28;5002685;28;20029;-72
2022/12/11 05:01:39;;;;;;;5.80;3.63;;;;;;;12.27;89.57;97253.69;5007165;28;20056;-72
2022/12/11 05:04:04;;;;;;;10.82;5.65;;;;;;;12.59;88.61;97289.31;5001013;28;20030;-72
2022/12/11 05:06:30;;;;;;;13.82;7.68;;;;;;;12.35;90.16;97281.31;5000390;28;20062;-72
2022/12/11 05:08:55;;;;;;;15.02;6.80;;;;;;;12.30;88.76;97283.69;5001169;28;20030;-72
2022/12/11 05:11:21;;;;;;;18.88;6.53;;;;;;;12.39;88.55;97275.69;5003167;28;20484;-72
2022/12/11 05:13:46;;;;;;;19.15;7.05;;;;;;;12.24;89.83;97285.31;5000855;28;20492;-72
2022/12/11 05:16:14;;;;;;;22.92;6.57;;;;;;;12.15;90.71;97292.09;4996900;28;20033;-72
2022/12/11 05:18:39;;;;;;;35.38;12.38;;;;;;;12.12;90.85;97306.91;4996142;28;20032;-72
2022/12/11 05:21:12;;;;;;;30.35;16.58;;;;;;;11.96;91.95;97309.28;4997292;28;20034;-72
2022/12/11 05:23:38;;;;;;;28.17;12.82;;;;;;;11.73;93.73;97304.81;4994090;28;20033;-72
2022/12/11 05:26:07;;;;;;;37.60;16.05;;;;;;;11.63;94.08;97301.59;5010519;28;20032;-72
2022/12/11 05:28:35;;;;;;;33.60;13.88;;;;;;;11.66;94.23;97291.59;4998979;28;20038;-72
2022/12/11 05:31:05;;;;;;;25.50;10.30;;;;;;;11.82;93.21;97305.22;4991730;28;20400;-73
2022/12/11 05:33:31;;;;;;;35.28;18.58;;;;;;;11.89;91.87;97321.28;5001697;28;20040;-71
2022/12/11 05:35:57;;;;;;;28.00;16.55;;;;;;;12.02;91.33;97332.91;4990164;28;20034;-72
2022/12/11 05:38:23;;;;;;;30.92;14.98;;;;;;;11.90;92.02;97331.28;4988336;28;20496;-70
2022/12/11 05:41:03;;;;;;;27.67;13.18;;;;;;;11.61;94.39;97342.38;4986792;28;20030;-70
2022/12/11 05:43:32;;;;;;;20.27;12.63;;;;;;;11.18;96.91;97335.38;4989372;28;20059;-70
2022/12/11 05:46:24;;;;;;;26.25;11.30;;;;;;;11.13;99.20;97338.53;4997386;28;20042;-72
2022/12/11 05:48:55;;;;;;;22.58;9.77;;;;;;;11.09;100.00;97337.72;5002850;28;20485;-72
2022/12/11 05:51:21;;;;;;;23.08;8.45;;;;;;;11.13;100.00;97340.56;5001394;28;20032;-71
2022/12/11 05:53:48;;;;;;;23.95;8.27;;;;;;;11.12;100.00;97347.34;4991897;28;20113;-73
2022/12/11 05:56:17;;;;;;;16.85;9.05;;;;;;;11.03;100.00;97358.84;4991630;28;20416;-73
2022/12/11 05:58:44;;;;;;;65.38;10.85;;;;;;;11.08;100.00;97376.06;5002805;28;20404;-71
2022/12/11 06:01:13;;;;;;;25.40;9.30;;;;;;;10.87;100.00;97370.34;4994247;28;20031;-72
2022/12/11 06:03:38;;;;;;;26.02;9.18;;;;;;;10.92;100.00;97389.56;4991083;28;20117;-74
2022/12/11 06:06:05;;;;;;;24.70;8.98;;;;;;;10.82;100.00;97383.50;4990381;28;20041;-73
2022/12/11 06:08:31;;;;;;;22.95;9.13;;;;;;;10.92;100.00;97383.97;5035406;28;20038;-72
2022/12/11 06:10:57;;;;;;;29.90;10.30;;;;;;;10.80;100.00;97388.69;5003416;28;20420;-72
2022/12/11 06:13:22;;;;;;;20.88;8.80;;;;;;;10.67;100.00;97381.78;5008909;28;20022;-73
2022/12/11 06:15:48;;;;;;;58.35;26.98;;;;;;;10.55;100.00;97391.25;5002160;28;20049;-71
2022/12/11 06:18:13;;;;;;;59.15;34.20;;;;;;;10.68;100.00;97388.97;4992480;28;20034;-71
2022/12/11 06:20:39;;;;;;;28.20;13.27;;;;;;;10.66;100.00;97399.75;4989267;28;20433;-72
2022/12/11 06:23:05;;;;;;;37.83;15.68;;;;;;;10.43;100.00;97420.31;4995487;28;20528;-70
2022/12/11 06:25:30;;;;;;;32.45;14.52;;;;;;;10.29;100.00;97420.91;4992811;28;20037;-71
2022/12/11 06:27:56;;;;;;;64.32;31.33;;;;;;;10.46;100.00;97413.16;5006500;28;20033;-71
2022/12/11 06:30:22;;;;;;;101.45;49.28;;;;;;;10.28;100.00;97415.72;5007922;28;20037;-70
2022/12/11 06:32:47;;;;;;;58.95;26.85;;;;;;;10.38;100.00;97406.66;5006864;28;20038;-70
2022/12/11 06:35:13;;;;;;;43.00;19.58;;;;;;;10.52;100.00;97403.22;4999592;28;20064;-70
2022/12/11 06:37:39;;;;;;;78.40;39.45;;;;;;;10.54;100.00;97409.22;4994645;28;20033;-69
2022/12/11 06:40:06;;;;;;;62.58;33.70;;;;;;;10.61;100.00;97433.63;5003206;28;20076;-71
2022/12/11 06:42:32;;;;;;;57.10;33.72;;;;;;;10.83;100.00;97420.66;4991308;28;20026;-70
2022/12/11 06:44:58;;;;;;;64.43;30.70;;;;;;;10.75;100.00;97430.16;4989055;28;20022;-70
2022/12/11 06:47:28;;;;;;;32.70;16.60;;;;;;;11.09;100.00;97425.25;4988926;28;20042;-69
2022/12/11 06:49:54;;;;;;;27.85;10.38;;;;;;;11.22;100.00;97413.72;4987022;28;20112;-70
2022/12/11 06:52:20;;;;;;;31.92;11.90;;;;;;;11.30;100.00;97414.59;4988188;28;20548;-70
2022/12/11 06:54:46;;;;;;;41.03;12.25;;;;;;;11.34;100.00;97410.66;4988499;28;20030;-70
2022/12/11 06:57:11;;;;;;;35.10;21.50;;;;;;;11.40;100.00;97411.03;4994354;28;20408;-71
2022/12/11 06:59:37;;;;;;;37.60;17.85;;;;;;;11.42;100.00;97400.28;4991904;28;20085;-70
2022/12/11 07:02:03;;;;;;;29.70;13.93;;;;;;;11.57;100.00;97412.34;5001055;28;20033;-71
2022/12/11 07:04:29;;;;;;;36.28;17.20;;;;;;;11.69;100.00;97405.63;5003573;28;20459;-72
2022/12/11 07:06:56;;;;;;;61.65;35.92;;;;;;;11.86;100.00;97414.47;5000698;28;20066;-72
2022/12/11 07:09:22;;;;;;;61.28;33.42;;;;;;;11.79;100.00;97398.44;4992475;28;20113;-72
2022/12/11 07:11:51;;;;;;;38.53;19.38;;;;;;;11.85;100.00;97399.69;4992056;28;20598;-72
2022/12/11 07:14:17;;;;;;;36.17;16.58;;;;;;;11.95;100.00;97420.53;4993407;28;20328;-71
2022/12/11 07:16:42;;;;;;;26.85;14.57;;;;;;;12.00;100.00;97427.75;5009325;28;20416;-71
2022/12/11 07:19:08;;;;;;;28.17;15.25;;;;;;;12.01;99.92;97423.75;5012216;28;20042;-71
2022/12/11 07:21:34;;;;;;;36.38;15.07;;;;;;;12.01;100.00;97443.34;4997290;28;20519;-73
2022/12/11 07:23:59;;;;;;;75.95;33.92;;;;;;;11.86;100.00;97436.88;4993376;28;20489;-71
2022/12/11 07:26:25;;;;;;;32.03;17.23;;;;;;;11.93;100.00;97440.50;5009775;28;20107;-71
2022/12/11 07:28:51;;;;;;;39.17;16.50;;;;;;;12.05;100.00;97449.78;4991478;28;20488;-71
2022/12/11 07:31:21;;;;;;;50.67;25.92;;;;;;;12.07;100.00;97439.03;5008243;28;20034;-72
2022/12/11 07:33:46;;;;;;;51.95;27.63;;;;;;;12.29;99.34;97420.25;4991812;28;20784;-76
2022/12/11 07:36:13;;;;;;;39.67;19.65;;;;;;;12.32;98.93;97415.88;5009954;28;20073;-75
2022/12/11 07:38:40;;;;;;;44.47;24.38;;;;;;;12.41;98.09;97427.47;5011912;28;20036;-70
2022/12/11 07:41:09;;;;;;;44.17;18.80;;;;;;;12.50;97.53;97425.09;5005806;28;20068;-77
2022/12/11 07:43:35;;;;;;;29.67;14.67;;;;;;;12.63;97.42;97425.53;4999151;28;20030;-73
2022/12/11 07:46:05;;;;;;;25.50;14.25;;;;;;;12.75;96.06;97434.75;5010073;28;20491;-73
2022/12/11 07:48:31;;;;;;;32.63;17.85;;;;;;;12.85;94.87;97436.78;4992127;28;20129;-72
2022/12/11 07:51:07;;;;;;;25.52;16.13;;;;;;;12.90;94.28;97432.75;4992552;28;20038;-73
2022/12/11 07:53:33;;;;;;;28.20;11.23;;;;;;;12.95;94.36;97428.75;4992733;28;20125;-70
2022/12/11 07:55:58;;;;;;;23.55;11.52;;;;;;;12.99;93.34;97419.13;4990861;28;20139;-70
2022/12/11 07:58:24;;;;;;;24.58;12.32;;;;;;;12.96;94.67;97419.94;4994692;28;20030;-71
2022/12/11 08:00:50;;;;;;;33.65;16.92;;;;;;;13.04;95.33;97429.97;4993672;28;20034;-72
2022/12/11 08:03:16;;;;;;;29.40;13.35;;;;;;;13.21;94.89;97441.56;4997459;28;20397;-72
2022/12/11 08:05:49;;;;;;;197.52;125.57;;;;;;;13.37;94.94;97440.34;5010937;28;20060;-74
2022/12/11 08:08:15;;;;;;;57.33;33.53;;;;;;;13.57;95.00;97435.91;5010518;28;20041;-72
2022/12/11 08:10:41;;;;;;;182.10;84.15;;;;;;;13.68;94.89;97432.28;5007726;28;20543;-72
2022/12/11 08:13:07;;;;;;;122.72;62.55;;;;;;;13.81;93.13;97430.63;5004065;28;20029;-78
2022/12/11 08:15:33;;;;;;;25.77;12.77;;;;;;;13.93;92.89;97439.81;5000800;28;20175;-71
2022/12/11 08:17:58;;;;;;;22.17;10.23;;;;;;;13.95;92.46;97446.66;4999267;28;20034;-70
2022/12/11 08:20:24;;;;;;;12.25;6.90;;;;;;;14.02;92.19;97431.78;4997537;28;20126;-72
2022/12/11 08:22:49;;;;;;;17.35;7.15;;;;;;;13.95;93.70;97421.34;5000519;28;20022;-71
2022/12/11 08:25:15;;;;;;;14.98;7.15;;;;;;;13.96;93.40;97410.91;5009574;28;20429;-71
2022/12/11 08:27:41;;;;;;;26.27;9.15;;;;;;;14.08;93.79;97412.47;4997463;28;20117;-72
2022/12/11 08:30:07;;;;;;;25.10;10.05;;;;;;;14.22;91.54;97426.44;4996387;28;20039;-76
2022/12/11 08:32:33;;;;;;;22.38;7.97;;;;;;;14.38;90.65;97399.84;5010392;28;20483;-70
2022/12/11 08:34:59;;;;;;;17.88;8.02;;;;;;;14.51;92.22;97406.59;5004355;28;20030;-72
2022/12/11 08:37:24;;;;;;;18.77;8.13;;;;;;;14.54;92.58;97402.97;4991917;28;20048;-73
2022/12/11 08:39:49;;;;;;;16.75;7.30;;;;;;;14.70;90.26;97407.28;5020157;28;20049;-74
2022/12/11 08:42:15;;;;;;;16.15;7.22;;;;;;;14.62;89.79;97406.53;4990768;28;20041;-73
2022/12/11 08:44:40;;;;;;;24.05;7.57;;;;;;;14.72;89.62;97419.75;5002391;28;20398;-74
2022/12/11 08:47:08;;;;;;;16.88;7.28;;;;;;;14.77;89.05;97421.31;4991818;28;20060;-74
2022/12/11 08:49:34;;;;;;;21.98;8.75;;;;;;;14.92;88.27;97427.63;4989724;28;20064;-73
2022/12/11 08:52:00;;;;;;;28.90;12.80;;;;;;;15.08;87.15;97431.91;4990081;28;20026;-73
2022/12/11 08:54:25;;;;;;;25.38;13.10;;;;;;;15.29;86.91;97426.09;4991137;28;20034;-73
2022/12/11 08:56:51;;;;;;;21.40;12.88;;;;;;;15.56;85.42;97438.72;4989885;28;20030;-74
2022/12/11 08:59:17;;;;;;;47.40;21.30;;;;;;;15.77;83.70;97446.13;4991355;28;20023;-74
2022/12/11 09:01:42;;;;;;;12.05;5.75;;;;;;;16.23;69.54;97441.22;5002138;28;21554;-75
2022/12/11 09:04:08;;;;;;;7.15;3.90;;;;;;;16.62;64.62;97444.69;4991868;28;20076;-74
2022/12/11 09:06:33;;;;;;;7.00;3.83;;;;;;;16.85;63.04;97460.09;4994312;28;20034;-75
2022/12/11 09:09:01;;;;;;;6.88;4.30;;;;;;;17.09;62.60;97454.50;4989605;28;20560;-74
2022/12/11 09:11:29;;;;;;;9.40;4.05;;;;;;;17.41;59.65;97453.16;4992604;28;20038;-73
2022/12/11 09:13:55;;;;;;;11.60;4.18;;;;;;;17.66;60.19;97451.91;5001680;28;20034;-74
2022/12/11 09:16:23;;;;;;;5.32;2.83;;;;;;;17.74;56.81;97442.09;4993773;28;20034;-75
2022/12/11 09:18:51;;;;;;;8.35;3.17;;;;;;;17.82;57.25;97437.09;5008020;28;20034;-74
2022/12/11 09:21:19;;;;;;;7.95;3.72;;;;;;;17.94;58.43;97430.78;4993628;28;20069;-73
2022/12/11 09:23:45;;;;;;;15.52;6.53;;;;;;;18.13;55.95;97411.41;5006395;28;20557;-73
2022/12/11 09:26:13;;;;;;;11.63;5.13;;;;;;;18.29;56.44;97399.38;4995344;28;20145;-73
2022/12/11 09:28:40;;;;;;;11.45;5.63;;;;;;;18.37;57.09;97403.63;4992395;28;20038;-73
2022/12/11 09:31:10;;;;;;;14.95;5.47;;;;;;;18.40;56.12;97413.25;4994812;28;20100;-74
2022/12/11 09:33:37;;;;;;;11.75;5.55;;;;;;;18.27;57.76;97418.00;4997173;28;20038;-74
2022/12/11 09:36:03;;;;;;;8.25;3.65;;;;;;;18.15;56.01;97408.94;5006130;28;20022;-75
2022/12/11 09:38:29;;;;;;;6.38;3.47;;;;;;;18.17;55.33;97395.19;4993582;28;20038;-76
2022/12/11 09:40:55;;;;;;;6.68;3.10;;;;;;;18.19;55.65;97394.72;4992920;28;20034;-76
2022/12/11 09:43:59;;;;;;;9.27;5.18;;;;;;;18.16;56.35;97392.78;4992337;28;20104;-79
2022/12/11 09:46:25;;;;;;;8.93;4.88;;;;;;;18.10;54.69;97382.00;4995557;28;20377;-79
2022/12/11 09:48:52;;;;;;;7.32;3.70;;;;;;;18.29;54.94;97373.91;4998957;28;20054;-75
2022/12/11 09:51:27;;;;;;;6.97;2.80;;;;;;;18.34;53.94;97386.72;4992660;28;20350;-76
2022/12/11 09:53:58;;;;;;;5.07;2.35;;;;;;;18.29;53.86;97381.59;4992679;28;20132;-74
2022/12/11 09:56:39;;;;;;;4.88;2.38;;;;;;;18.37;54.54;97374.53;4993274;28;20088;-75
2022/12/11 09:59:07;;;;;;;4.72;2.55;;;;;;;18.38;54.05;97376.13;4993073;28;20040;-75
2022/12/11 10:01:43;;;;;;;12.40;4.22;;;;;;;18.37;53.49;97369.69;4998595;28;20484;-78
2022/12/11 10:04:35;;;;;;;2.83;2.00;;;;;;;18.44;53.38;97367.91;4999959;28;20033;-76
2022/12/11 10:07:12;;;;;;;3.70;2.15;;;;;;;18.52;54.56;97358.84;5006229;28;20046;-74
2022/12/11 10:09:50;;;;;;;6.47;2.30;;;;;;;18.40;55.76;97350.22;5003795;28;20069;-72
2022/12/11 10:12:28;;;;;;;9.68;2.60;;;;;;;18.35;54.76;97332.53;5005993;28;20026;-74
2022/12/11 10:15:14;;;;;;;6.68;1.90;;;;;;;18.49;54.69;97341.94;5007553;28;20025;-74
2022/12/11 10:17:43;;;;;;;8.52;3.15;;;;;;;18.46;54.20;97320.16;5005616;28;20469;-75
2022/12/11 10:20:08;;;;;;;6.78;2.97;;;;;;;18.43;56.21;97338.03;5006748;28;20029;-76
2022/12/11 10:22:34;;;;;;;6.53;3.95;;;;;;;18.34;56.99;97332.97;5008859;28;20026;-77
2022/12/11 10:25:04;;;;;;;7.57;4.57;;;;;;;18.14;58.31;97330.19;5005067;28;20029;-72
2022/12/11 10:27:37;;;;;;;9.60;5.22;;;;;;;18.16;55.27;97314.38;4999840;28;20026;-73
2022/12/11 10:30:21;;;;;;;18.92;11.40;;;;;;;18.16;54.21;97319.25;5008443;28;20088;-73
2022/12/11 10:32:57;;;;;;;21.48;13.63;;;;;;;18.21;53.22;97324.38;4997531;28;20061;-73
2022/12/11 10:35:40;;;;;;;57.42;35.03;;;;;;;18.22;51.84;97323.94;5001827;28;20121;-72
2022/12/11 10:38:12;;;;;;;16.48;9.55;;;;;;;18.33;52.79;97309.53;5003054;28;20540;-73
2022/12/11 10:40:42;;;;;;;12.70;4.15;;;;;;;18.35;52.56;97304.25;5007414;28;20047;-73
2022/12/11 10:43:09;;;;;;;7.32;2.85;;;;;;;18.31;53.78;97294.25;4998858;28;20030;-73
2022/12/11 10:45:35;;;;;;;6.93;3.13;;;;;;;18.44;53.83;97297.97;4995565;28;20074;-74
2022/12/11 10:48:05;;;;;;;17.67;10.88;;;;;;;18.59;53.35;97295.59;5007533;28;20057;-72
2022/12/11 10:50:31;;;;;;;89.38;67.75;;;;;;;18.72;52.61;97304.16;5004620;28;20460;-73
2022/12/11 10:52:57;;;;;;;8.13;4.95;;;;;;;18.98;50.96;97295.00;4992219;28;20050;-72
2022/12/11 10:55:42;;;;;;;5.15;2.53;;;;;;;18.91;50.19;97285.44;5005810;28;20018;-75
2022/12/11 10:58:18;;;;;;;10.38;2.83;;;;;;;18.88;50.63;97294.84;5005676;28;20545;-74
2022/12/11 11:00:44;;;;;;;5.82;2.92;;;;;;;18.82;50.83;97288.13;5007623;28;20068;-75
2022/12/11 11:03:23;;;;;;;34.95;22.00;;;;;;;18.77;48.90;97283.00;5008426;28;20076;-74
2022/12/11 11:05:49;;;;;;;11.50;5.32;;;;;;;18.75;49.98;97285.47;4995663;28;20079;-73
2022/12/11 11:08:23;;;;;;;18.50;10.40;;;;;;;18.78;48.77;97285.41;5006077;28;20017;-73
2022/12/11 11:11:00;;;;;;;11.98;6.40;;;;;;;18.75;47.84;97277.00;4994942;28;20018;-71
2022/12/11 11:13:31;;;;;;;35.17;18.98;;;;;;;18.62;48.16;97282.56;4995091;28;20114;-71
2022/12/11 11:16:03;;;;;;;11.73;7.72;;;;;;;18.63;47.59;97284.97;5000403;28;20036;-72
2022/12/11 11:18:30;;;;;;;11.85;7.75;;;;;;;18.64;47.42;97278.06;4992376;28;20049;-70
2022/12/11 11:20:57;;;;;;;14.32;9.52;;;;;;;18.66;47.62;97283.28;4997308;28;20030;-70
2022/12/11 11:23:24;;;;;;;65.20;38.95;;;;;;;18.62;47.59;97283.38;5002720;28;20030;-70
2022/12/11 11:25:54;;;;;;;9.45;5.55;;;;;;;18.67;48.48;97296.19;5004766;28;20488;-70
2022/12/11 11:28:35;;;;;;;82.97;57.00;;;;;;;18.63;49.34;97295.47;5006589;28;20405;-70
2022/12/11 11:31:10;;;;;;;64.55;43.80;;;;;;;18.57;48.16;97292.38;5004732;28;20511;-70
2022/12/11 11:33:44;;;;;;;21.77;15.90;;;;;;;18.57;47.47;97298.03;5007763;28;20092;-71
2022/12/11 11:36:21;;;;;;;38.08;25.58;;;;;;;18.53;47.76;97286.03;5006807;28;20033;-70
2022/12/11 11:38:58;;;;;;;19.50;9.57;;;;;;;18.58;46.69;97291.16;5003862;28;20635;-70